sensor_id;sensor_type;location;lat;lon;timestamp;P1;durP1;ratioP1;P2;durP2;ratioP2
52354;SDS011;38286;51.156;17.038;2022-10-31T00:02:20;31.02;;;17.15;;
52354;SDS011;38286;51.156;17.038;2022-10-31T00:04:45;36.10;;;18.40;;
52354;SDS011;38286;51.156;17.038;2022-10-31T00:07:11;32.45;;;16.60;;
52354;SDS011;38286;51.156;17.038;2022-10-31T00:09:37;37.55;;;18.70;;
52354;SDS011;38286;51.156;17.038;2022-10-31T00:12:02;32.55;;;17.65;;
52354;SDS011;38286;51.156;17.038;2022-10-31T00:14:28;71.82;;;32.03;;
52354;SDS011;38286;51.156;17.038;2022-10-31T00:16:53;83.93;;;37.55;;
52354;SDS011;38286;51.156;17.038;2022-10-31T00:19:19;35.00;;;19.40;;
52354;SDS011;38286;51.156;17.038;2022-10-31T00:21:45;39.13;;;20.77;;
52354;SDS011;38286;51.156;17.038;2022-10-31T00:24:10;40.97;;;18.35;;
52354;SDS011;38286;51.156;17.038;2022-10-31T00:26:36;35.22;;;18.80;;
52354;SDS011;38286;51.156;17.038;2022-10-31T00:29:02;36.15;;;17.52;;
52354;SDS011;38286;51.156;17.038;2022-10-31T00:31:45;34.90;;;17.58;;
52354;SDS011;38286;51.156;17.038;2022-10-31T00:34:11;36.88;;;18.38;;
52354;SDS011;38286;51.156;17.038;2022-10-31T00:36:37;35.85;;;19.27;;
52354;SDS011;38286;51.156;17.038;2022-10-31T00:39:02;36.42;;;18.70;;
52354;SDS011;38286;51.156;17.038;2022-10-31T00:41:28;35.85;;;19.52;;
52354;SDS011;38286;51.156;17.038;2022-10-31T00:43:54;42.63;;;21.98;;
52354;SDS011;38286;51.156;17.038;2022-10-31T00:46:20;52.90;;;25.40;;
52354;SDS011;38286;51.156;17.038;2022-10-31T00:48:47;46.35;;;23.42;;
52354;SDS011;38286;51.156;17.038;2022-10-31T00:51:12;47.47;;;23.08;;
52354;SDS011;38286;51.156;17.038;2022-10-31T00:53:38;44.67;;;20.42;;
52354;SDS011;38286;51.156;17.038;2022-10-31T00:56:04;39.55;;;21.52;;
52354;SDS011;38286;51.156;17.038;2022-10-31T00:58:33;39.28;;;20.67;;
52354;SDS011;38286;51.156;17.038;2022-10-31T01:00:58;41.92;;;21.13;;
52354;SDS011;38286;51.156;17.038;2022-10-31T01:03:25;36.78;;;18.65;;
52354;SDS011;38286;51.156;17.038;2022-10-31T01:05:56;37.55;;;18.52;;
52354;SDS011;38286;51.156;17.038;2022-10-31T01:08:25;47.63;;;22.25;;
52354;SDS011;38286;51.156;17.038;2022-10-31T01:13:43;60.28;;;27.17;;
52354;SDS011;38286;51.156;17.038;2022-10-31T01:16:10;53.38;;;25.13;;
52354;SDS011;38286;51.156;17.038;2022-10-31T01:18:37;55.13;;;26.73;;
52354;SDS011;38286;51.156;17.038;2022-10-31T01:21:11;39.72;;;20.08;;
52354;SDS011;38286;51.156;17.038;2022-10-31T01:23:41;34.80;;;19.95;;
52354;SDS011;38286;51.156;17.038;2022-10-31T01:26:11;41.40;;;20.50;;
52354;SDS011;38286;51.156;17.038;2022-10-31T01:28:48;44.45;;;19.13;;
52354;SDS011;38286;51.156;17.038;2022-10-31T01:31:16;39.70;;;18.98;;
52354;SDS011;38286;51.156;17.038;2022-10-31T01:33:43;49.28;;;26.23;;
52354;SDS011;38286;51.156;17.038;2022-10-31T01:36:16;46.33;;;22.45;;
52354;SDS011;38286;51.156;17.038;2022-10-31T01:38:44;37.15;;;21.38;;
52354;SDS011;38286;51.156;17.038;2022-10-31T01:41:15;35.97;;;19.42;;
52354;SDS011;38286;51.156;17.038;2022-10-31T01:46:08;38.88;;;20.45;;
52354;SDS011;38286;51.156;17.038;2022-10-31T01:48:34;35.58;;;19.50;;
52354;SDS011;38286;51.156;17.038;2022-10-31T01:50:59;36.00;;;18.58;;
52354;SDS011;38286;51.156;17.038;2022-10-31T01:53:25;38.10;;;20.13;;
52354;SDS011;38286;51.156;17.038;2022-10-31T01:55:51;37.50;;;20.50;;
52354;SDS011;38286;51.156;17.038;2022-10-31T01:58:18;34.42;;;18.30;;
52354;SDS011;38286;51.156;17.038;2022-10-31T02:00:46;34.45;;;18.65;;
52354;SDS011;38286;51.156;17.038;2022-10-31T02:03:15;34.17;;;18.63;;
52354;SDS011;38286;51.156;17.038;2022-10-31T02:05:41;34.17;;;17.35;;
52354;SDS011;38286;51.156;17.038;2022-10-31T02:08:22;33.83;;;18.58;;
52354;SDS011;38286;51.156;17.038;2022-10-31T02:10:52;35.65;;;17.95;;
52354;SDS011;38286;51.156;17.038;2022-10-31T02:13:17;34.70;;;17.92;;
52354;SDS011;38286;51.156;17.038;2022-10-31T02:15:44;30.92;;;18.42;;
52354;SDS011;38286;51.156;17.038;2022-10-31T02:21:50;36.85;;;18.75;;
52354;SDS011;38286;51.156;17.038;2022-10-31T02:27:02;45.17;;;23.35;;
52354;SDS011;38286;51.156;17.038;2022-10-31T02:29:53;52.80;;;23.98;;
52354;SDS011;38286;51.156;17.038;2022-10-31T02:42:39;40.15;;;19.08;;
52354;SDS011;38286;51.156;17.038;2022-10-31T02:45:18;34.63;;;18.42;;
52354;SDS011;38286;51.156;17.038;2022-10-31T02:47:48;34.58;;;18.48;;
52354;SDS011;38286;51.156;17.038;2022-10-31T02:50:17;36.60;;;19.40;;
52354;SDS011;38286;51.156;17.038;2022-10-31T02:52:49;39.05;;;19.58;;
52354;SDS011;38286;51.156;17.038;2022-10-31T02:57:51;39.33;;;19.48;;
52354;SDS011;38286;51.156;17.038;2022-10-31T03:00:18;46.08;;;20.83;;
52354;SDS011;38286;51.156;17.038;2022-10-31T03:10:58;36.88;;;19.10;;
52354;SDS011;38286;51.156;17.038;2022-10-31T03:13:39;36.53;;;19.33;;
52354;SDS011;38286;51.156;17.038;2022-10-31T03:16:11;36.88;;;19.23;;
52354;SDS011;38286;51.156;17.038;2022-10-31T03:18:43;35.15;;;19.10;;
52354;SDS011;38286;51.156;17.038;2022-10-31T03:21:14;32.97;;;18.60;;
52354;SDS011;38286;51.156;17.038;2022-10-31T03:23:42;37.33;;;19.38;;
52354;SDS011;38286;51.156;17.038;2022-10-31T03:26:09;32.03;;;17.23;;
52354;SDS011;38286;51.156;17.038;2022-10-31T03:28:38;33.38;;;16.65;;
52354;SDS011;38286;51.156;17.038;2022-10-31T03:31:08;34.25;;;17.77;;
52354;SDS011;38286;51.156;17.038;2022-10-31T03:33:35;30.80;;;17.63;;
52354;SDS011;38286;51.156;17.038;2022-10-31T03:36:03;33.08;;;18.92;;
52354;SDS011;38286;51.156;17.038;2022-10-31T03:38:30;33.17;;;18.13;;
52354;SDS011;38286;51.156;17.038;2022-10-31T03:40:57;32.38;;;16.98;;
52354;SDS011;38286;51.156;17.038;2022-10-31T03:43:24;32.55;;;16.85;;
52354;SDS011;38286;51.156;17.038;2022-10-31T03:45:53;34.30;;;18.63;;
52354;SDS011;38286;51.156;17.038;2022-10-31T03:48:20;30.83;;;17.80;;
52354;SDS011;38286;51.156;17.038;2022-10-31T03:51:01;33.20;;;18.50;;
52354;SDS011;38286;51.156;17.038;2022-10-31T03:53:34;33.08;;;18.15;;
52354;SDS011;38286;51.156;17.038;2022-10-31T03:56:02;30.80;;;17.80;;
52354;SDS011;38286;51.156;17.038;2022-10-31T03:58:36;36.33;;;18.30;;
52354;SDS011;38286;51.156;17.038;2022-10-31T04:01:05;41.05;;;17.83;;
52354;SDS011;38286;51.156;17.038;2022-10-31T04:03:33;34.63;;;17.90;;
52354;SDS011;38286;51.156;17.038;2022-10-31T04:06:01;36.30;;;17.60;;
52354;SDS011;38286;51.156;17.038;2022-10-31T04:08:30;34.15;;;17.85;;
52354;SDS011;38286;51.156;17.038;2022-10-31T04:11:06;31.90;;;17.83;;
52354;SDS011;38286;51.156;17.038;2022-10-31T04:13:39;32.72;;;18.27;;
52354;SDS011;38286;51.156;17.038;2022-10-31T04:16:06;30.98;;;17.35;;
52354;SDS011;38286;51.156;17.038;2022-10-31T04:18:33;34.30;;;17.65;;
52354;SDS011;38286;51.156;17.038;2022-10-31T04:21:08;33.42;;;18.38;;
52354;SDS011;38286;51.156;17.038;2022-10-31T04:25:59;37.88;;;18.67;;
52354;SDS011;38286;51.156;17.038;2022-10-31T04:28:25;32.53;;;18.13;;
52354;SDS011;38286;51.156;17.038;2022-10-31T04:30:51;34.28;;;19.80;;
52354;SDS011;38286;51.156;17.038;2022-10-31T04:33:17;35.55;;;21.65;;
52354;SDS011;38286;51.156;17.038;2022-10-31T04:35:42;35.38;;;20.02;;
52354;SDS011;38286;51.156;17.038;2022-10-31T04:38:08;33.90;;;19.35;;
52354;SDS011;38286;51.156;17.038;2022-10-31T04:40:34;31.95;;;18.00;;
52354;SDS011;38286;51.156;17.038;2022-10-31T04:42:59;31.58;;;17.33;;
52354;SDS011;38286;51.156;17.038;2022-10-31T04:45:25;30.50;;;18.05;;
52354;SDS011;38286;51.156;17.038;2022-10-31T04:47:51;32.40;;;18.02;;
52354;SDS011;38286;51.156;17.038;2022-10-31T04:50:16;36.28;;;18.58;;
52354;SDS011;38286;51.156;17.038;2022-10-31T04:56:23;33.53;;;18.30;;
52354;SDS011;38286;51.156;17.038;2022-10-31T04:58:48;32.08;;;18.55;;
52354;SDS011;38286;51.156;17.038;2022-10-31T05:01:14;35.90;;;20.65;;
52354;SDS011;38286;51.156;17.038;2022-10-31T05:03:39;33.90;;;20.42;;
52354;SDS011;38286;51.156;17.038;2022-10-31T05:06:05;37.45;;;19.75;;
52354;SDS011;38286;51.156;17.038;2022-10-31T05:08:31;33.97;;;19.42;;
52354;SDS011;38286;51.156;17.038;2022-10-31T05:11:00;34.60;;;17.92;;
52354;SDS011;38286;51.156;17.038;2022-10-31T05:16:45;31.65;;;18.52;;
52354;SDS011;38286;51.156;17.038;2022-10-31T05:19:11;32.03;;;19.25;;
52354;SDS011;38286;51.156;17.038;2022-10-31T05:21:37;32.45;;;19.25;;
52354;SDS011;38286;51.156;17.038;2022-10-31T05:24:02;32.08;;;19.25;;
52354;SDS011;38286;51.156;17.038;2022-10-31T05:26:28;37.35;;;21.25;;
52354;SDS011;38286;51.156;17.038;2022-10-31T05:28:54;35.38;;;21.67;;
52354;SDS011;38286;51.156;17.038;2022-10-31T05:31:19;39.90;;;20.70;;
52354;SDS011;38286;51.156;17.038;2022-10-31T05:33:45;31.98;;;18.55;;
52354;SDS011;38286;51.156;17.038;2022-10-31T05:36:11;33.03;;;18.85;;
52354;SDS011;38286;51.156;17.038;2022-10-31T05:38:36;32.85;;;18.05;;
52354;SDS011;38286;51.156;17.038;2022-10-31T05:41:02;30.77;;;18.20;;
52354;SDS011;38286;51.156;17.038;2022-10-31T05:43:28;29.75;;;17.77;;
52354;SDS011;38286;51.156;17.038;2022-10-31T05:49:53;34.15;;;18.50;;
52354;SDS011;38286;51.156;17.038;2022-10-31T05:52:19;34.45;;;19.45;;
52354;SDS011;38286;51.156;17.038;2022-10-31T05:54:45;31.35;;;16.90;;
52354;SDS011;38286;51.156;17.038;2022-10-31T05:57:10;32.55;;;18.20;;
52354;SDS011;38286;51.156;17.038;2022-10-31T05:59:36;32.33;;;17.60;;
52354;SDS011;38286;51.156;17.038;2022-10-31T06:02:01;31.85;;;19.17;;
52354;SDS011;38286;51.156;17.038;2022-10-31T06:04:27;34.28;;;19.42;;
52354;SDS011;38286;51.156;17.038;2022-10-31T06:06:53;28.60;;;17.42;;
52354;SDS011;38286;51.156;17.038;2022-10-31T06:09:18;33.97;;;18.95;;
52354;SDS011;38286;51.156;17.038;2022-10-31T06:11:44;33.08;;;18.10;;
52354;SDS011;38286;51.156;17.038;2022-10-31T06:18:00;33.65;;;18.98;;
52354;SDS011;38286;51.156;17.038;2022-10-31T06:20:27;34.63;;;19.35;;
52354;SDS011;38286;51.156;17.038;2022-10-31T06:22:52;36.72;;;21.70;;
52354;SDS011;38286;51.156;17.038;2022-10-31T06:25:18;33.63;;;20.80;;
52354;SDS011;38286;51.156;17.038;2022-10-31T06:27:44;34.03;;;20.30;;
52354;SDS011;38286;51.156;17.038;2022-10-31T06:30:09;33.58;;;19.52;;
52354;SDS011;38286;51.156;17.038;2022-10-31T06:32:35;30.65;;;19.52;;
52354;SDS011;38286;51.156;17.038;2022-10-31T06:35:01;35.17;;;20.65;;
52354;SDS011;38286;51.156;17.038;2022-10-31T06:37:26;33.45;;;20.65;;
52354;SDS011;38286;51.156;17.038;2022-10-31T06:39:52;34.03;;;21.00;;
52354;SDS011;38286;51.156;17.038;2022-10-31T06:42:17;40.20;;;21.75;;
52354;SDS011;38286;51.156;17.038;2022-10-31T06:48:24;34.53;;;20.17;;
52354;SDS011;38286;51.156;17.038;2022-10-31T06:50:50;32.00;;;19.65;;
52354;SDS011;38286;51.156;17.038;2022-10-31T06:53:15;31.23;;;17.88;;
52354;SDS011;38286;51.156;17.038;2022-10-31T07:01:57;24.00;;;15.55;;
52354;SDS011;38286;51.156;17.038;2022-10-31T07:04:23;25.25;;;15.98;;
52354;SDS011;38286;51.156;17.038;2022-10-31T07:09:59;25.77;;;15.50;;
52354;SDS011;38286;51.156;17.038;2022-10-31T07:12:24;29.42;;;15.00;;
52354;SDS011;38286;51.156;17.038;2022-10-31T07:14:50;25.80;;;16.83;;
52354;SDS011;38286;51.156;17.038;2022-10-31T07:17:16;26.42;;;16.55;;
52354;SDS011;38286;51.156;17.038;2022-10-31T07:19:44;29.00;;;15.57;;
52354;SDS011;38286;51.156;17.038;2022-10-31T07:22:09;29.65;;;16.17;;
52354;SDS011;38286;51.156;17.038;2022-10-31T07:24:35;26.83;;;14.80;;
52354;SDS011;38286;51.156;17.038;2022-10-31T07:27:00;51.08;;;23.00;;
52354;SDS011;38286;51.156;17.038;2022-10-31T07:29:26;115.63;;;46.40;;
52354;SDS011;38286;51.156;17.038;2022-10-31T07:31:51;131.48;;;48.13;;
52354;SDS011;38286;51.156;17.038;2022-10-31T07:34:17;136.57;;;51.58;;
52354;SDS011;38286;51.156;17.038;2022-10-31T07:36:43;86.43;;;37.67;;
52354;SDS011;38286;51.156;17.038;2022-10-31T07:39:08;70.40;;;31.90;;
52354;SDS011;38286;51.156;17.038;2022-10-31T07:41:34;53.70;;;26.30;;
52354;SDS011;38286;51.156;17.038;2022-10-31T07:43:59;44.65;;;23.33;;
52354;SDS011;38286;51.156;17.038;2022-10-31T07:46:25;31.55;;;18.98;;
52354;SDS011;38286;51.156;17.038;2022-10-31T07:48:50;24.30;;;16.17;;
52354;SDS011;38286;51.156;17.038;2022-10-31T07:51:16;24.20;;;15.55;;
52354;SDS011;38286;51.156;17.038;2022-10-31T07:53:42;24.45;;;16.30;;
52354;SDS011;38286;51.156;17.038;2022-10-31T07:56:07;29.60;;;16.02;;
52354;SDS011;38286;51.156;17.038;2022-10-31T07:58:33;26.75;;;16.05;;
52354;SDS011;38286;51.156;17.038;2022-10-31T08:00:58;26.73;;;15.43;;
52354;SDS011;38286;51.156;17.038;2022-10-31T08:03:24;21.67;;;14.05;;
52354;SDS011;38286;51.156;17.038;2022-10-31T08:05:50;26.48;;;15.32;;
52354;SDS011;38286;51.156;17.038;2022-10-31T08:08:16;22.33;;;13.23;;
52354;SDS011;38286;51.156;17.038;2022-10-31T08:10:41;20.83;;;12.40;;
52354;SDS011;38286;51.156;17.038;2022-10-31T08:13:08;24.05;;;12.57;;
52354;SDS011;38286;51.156;17.038;2022-10-31T08:15:37;21.05;;;12.52;;
52354;SDS011;38286;51.156;17.038;2022-10-31T08:18:07;20.10;;;12.23;;
52354;SDS011;38286;51.156;17.038;2022-10-31T08:20:36;20.00;;;11.80;;
52354;SDS011;38286;51.156;17.038;2022-10-31T08:23:04;20.95;;;12.35;;
52354;SDS011;38286;51.156;17.038;2022-10-31T08:25:31;23.38;;;12.45;;
52354;SDS011;38286;51.156;17.038;2022-10-31T08:27:57;20.13;;;11.60;;
52354;SDS011;38286;51.156;17.038;2022-10-31T08:30:24;18.58;;;10.68;;
52354;SDS011;38286;51.156;17.038;2022-10-31T08:35:46;22.55;;;9.77;;
52354;SDS011;38286;51.156;17.038;2022-10-31T08:38:13;15.52;;;9.55;;
52354;SDS011;38286;51.156;17.038;2022-10-31T08:40:39;17.40;;;9.63;;
52354;SDS011;38286;51.156;17.038;2022-10-31T08:43:06;16.85;;;9.35;;
52354;SDS011;38286;51.156;17.038;2022-10-31T08:45:34;22.30;;;9.10;;
52354;SDS011;38286;51.156;17.038;2022-10-31T08:48:01;16.08;;;8.65;;
52354;SDS011;38286;51.156;17.038;2022-10-31T08:50:28;13.13;;;7.80;;
52354;SDS011;38286;51.156;17.038;2022-10-31T08:53:05;18.30;;;8.32;;
52354;SDS011;38286;51.156;17.038;2022-10-31T08:55:40;17.15;;;8.23;;
52354;SDS011;38286;51.156;17.038;2022-10-31T08:58:08;17.73;;;8.57;;
52354;SDS011;38286;51.156;17.038;2022-10-31T09:00:35;14.35;;;7.70;;
52354;SDS011;38286;51.156;17.038;2022-10-31T09:03:03;16.75;;;7.55;;
52354;SDS011;38286;51.156;17.038;2022-10-31T09:05:31;14.65;;;7.97;;
52354;SDS011;38286;51.156;17.038;2022-10-31T09:07:57;12.48;;;7.45;;
52354;SDS011;38286;51.156;17.038;2022-10-31T09:10:23;11.95;;;7.05;;
52354;SDS011;38286;51.156;17.038;2022-10-31T09:13:03;13.23;;;7.50;;
52354;SDS011;38286;51.156;17.038;2022-10-31T09:15:32;12.68;;;6.85;;
52354;SDS011;38286;51.156;17.038;2022-10-31T09:17:58;12.70;;;6.63;;
52354;SDS011;38286;51.156;17.038;2022-10-31T09:20:26;10.43;;;6.70;;
52354;SDS011;38286;51.156;17.038;2022-10-31T09:22:55;12.63;;;6.45;;
52354;SDS011;38286;51.156;17.038;2022-10-31T09:25:25;13.10;;;7.03;;
52354;SDS011;38286;51.156;17.038;2022-10-31T09:27:54;9.82;;;6.20;;
52354;SDS011;38286;51.156;17.038;2022-10-31T09:30:21;9.00;;;6.10;;
52354;SDS011;38286;51.156;17.038;2022-10-31T09:32:47;10.93;;;5.95;;
52354;SDS011;38286;51.156;17.038;2022-10-31T09:35:12;13.07;;;6.13;;
52354;SDS011;38286;51.156;17.038;2022-10-31T09:37:38;8.02;;;5.60;;
52354;SDS011;38286;51.156;17.038;2022-10-31T09:40:03;12.75;;;5.90;;
52354;SDS011;38286;51.156;17.038;2022-10-31T09:42:36;11.65;;;6.22;;
52354;SDS011;38286;51.156;17.038;2022-10-31T09:51:03;9.77;;;4.80;;
52354;SDS011;38286;51.156;17.038;2022-10-31T09:56:06;9.52;;;4.70;;
52354;SDS011;38286;51.156;17.038;2022-10-31T09:58:34;11.70;;;4.85;;
52354;SDS011;38286;51.156;17.038;2022-10-31T10:01:09;10.23;;;5.05;;
52354;SDS011;38286;51.156;17.038;2022-10-31T10:03:46;7.63;;;4.60;;
52354;SDS011;38286;51.156;17.038;2022-10-31T10:06:23;8.48;;;4.80;;
52354;SDS011;38286;51.156;17.038;2022-10-31T10:08:50;10.50;;;4.65;;
52354;SDS011;38286;51.156;17.038;2022-10-31T10:11:23;9.85;;;4.88;;
52354;SDS011;38286;51.156;17.038;2022-10-31T10:16:26;9.48;;;4.28;;
52354;SDS011;38286;51.156;17.038;2022-10-31T10:21:57;9.32;;;4.70;;
52354;SDS011;38286;51.156;17.038;2022-10-31T10:24:33;11.32;;;4.38;;
52354;SDS011;38286;51.156;17.038;2022-10-31T10:29:52;10.68;;;4.45;;
52354;SDS011;38286;51.156;17.038;2022-10-31T10:32:24;10.07;;;4.43;;
52354;SDS011;38286;51.156;17.038;2022-10-31T10:34:59;9.52;;;3.92;;
52354;SDS011;38286;51.156;17.038;2022-10-31T10:37:44;7.82;;;4.32;;
52354;SDS011;38286;51.156;17.038;2022-10-31T10:42:46;10.80;;;4.40;;
52354;SDS011;38286;51.156;17.038;2022-10-31T10:45:37;8.60;;;4.38;;
52354;SDS011;38286;51.156;17.038;2022-10-31T10:48:42;11.60;;;4.60;;
52354;SDS011;38286;51.156;17.038;2022-10-31T10:51:20;8.73;;;4.60;;
52354;SDS011;38286;51.156;17.038;2022-10-31T10:58:56;8.60;;;4.43;;
52354;SDS011;38286;51.156;17.038;2022-10-31T11:01:22;8.80;;;4.43;;
52354;SDS011;38286;51.156;17.038;2022-10-31T11:03:48;8.40;;;4.30;;
52354;SDS011;38286;51.156;17.038;2022-10-31T11:06:18;13.15;;;4.50;;
52354;SDS011;38286;51.156;17.038;2022-10-31T11:08:50;9.82;;;4.45;;
52354;SDS011;38286;51.156;17.038;2022-10-31T11:13:41;13.02;;;5.07;;
52354;SDS011;38286;51.156;17.038;2022-10-31T11:16:10;12.90;;;4.85;;
52354;SDS011;38286;51.156;17.038;2022-10-31T11:18:39;13.77;;;5.85;;
52354;SDS011;38286;51.156;17.038;2022-10-31T11:21:17;11.73;;;5.07;;
52354;SDS011;38286;51.156;17.038;2022-10-31T11:23:45;12.73;;;5.40;;
52354;SDS011;38286;51.156;17.038;2022-10-31T11:26:18;12.68;;;5.50;;
52354;SDS011;38286;51.156;17.038;2022-10-31T11:28:55;11.45;;;5.45;;
52354;SDS011;38286;51.156;17.038;2022-10-31T11:31:21;11.55;;;4.93;;
52354;SDS011;38286;51.156;17.038;2022-10-31T11:33:48;12.98;;;5.38;;
52354;SDS011;38286;51.156;17.038;2022-10-31T11:36:18;12.63;;;5.30;;
52354;SDS011;38286;51.156;17.038;2022-10-31T11:38:46;14.63;;;5.30;;
52354;SDS011;38286;51.156;17.038;2022-10-31T11:41:28;12.23;;;5.55;;
52354;SDS011;38286;51.156;17.038;2022-10-31T11:43:58;12.77;;;5.55;;
52354;SDS011;38286;51.156;17.038;2022-10-31T11:46:33;10.50;;;4.82;;
52354;SDS011;38286;51.156;17.038;2022-10-31T11:49:01;11.00;;;5.13;;
52354;SDS011;38286;51.156;17.038;2022-10-31T11:51:31;12.02;;;4.70;;
52354;SDS011;38286;51.156;17.038;2022-10-31T11:53:59;11.57;;;4.82;;
52354;SDS011;38286;51.156;17.038;2022-10-31T11:56:27;12.13;;;4.72;;
52354;SDS011;38286;51.156;17.038;2022-10-31T11:58:56;11.88;;;4.57;;
52354;SDS011;38286;51.156;17.038;2022-10-31T12:01:25;12.02;;;5.15;;
52354;SDS011;38286;51.156;17.038;2022-10-31T12:06:34;10.52;;;4.90;;
52354;SDS011;38286;51.156;17.038;2022-10-31T12:09:11;15.50;;;4.53;;
52354;SDS011;38286;51.156;17.038;2022-10-31T12:11:56;13.45;;;5.28;;
52354;SDS011;38286;51.156;17.038;2022-10-31T12:17:16;11.00;;;4.68;;
52354;SDS011;38286;51.156;17.038;2022-10-31T12:19:49;9.57;;;4.63;;
52354;SDS011;38286;51.156;17.038;2022-10-31T12:22:41;12.80;;;4.93;;
52354;SDS011;38286;51.156;17.038;2022-10-31T12:26:12;13.25;;;4.95;;
52354;SDS011;38286;51.156;17.038;2022-10-31T12:28:28;9.10;;;4.38;;
52354;SDS011;38286;51.156;17.038;2022-10-31T12:39:46;10.63;;;4.43;;
52354;SDS011;38286;51.156;17.038;2022-10-31T12:50:02;17.08;;;5.03;;
52354;SDS011;38286;51.156;17.038;2022-10-31T12:58:10;11.90;;;4.47;;
52354;SDS011;38286;51.156;17.038;2022-10-31T13:00:43;11.55;;;5.00;;
52354;SDS011;38286;51.156;17.038;2022-10-31T13:03:22;14.88;;;5.57;;
52354;SDS011;38286;51.156;17.038;2022-10-31T13:05:54;13.50;;;5.00;;
52354;SDS011;38286;51.156;17.038;2022-10-31T13:08:28;13.73;;;4.13;;
52354;SDS011;38286;51.156;17.038;2022-10-31T13:14:21;13.40;;;4.30;;
52354;SDS011;38286;51.156;17.038;2022-10-31T13:16:42;12.13;;;4.30;;
52354;SDS011;38286;51.156;17.038;2022-10-31T13:19:19;13.10;;;4.15;;
52354;SDS011;38286;51.156;17.038;2022-10-31T13:27:20;14.70;;;5.20;;
52354;SDS011;38286;51.156;17.038;2022-10-31T13:32:36;11.48;;;4.30;;
52354;SDS011;38286;51.156;17.038;2022-10-31T13:37:32;8.52;;;4.45;;
52354;SDS011;38286;51.156;17.038;2022-10-31T13:42:51;7.88;;;4.50;;
52354;SDS011;38286;51.156;17.038;2022-10-31T13:45:46;10.30;;;4.60;;
52354;SDS011;38286;51.156;17.038;2022-10-31T13:50:39;11.55;;;4.88;;
52354;SDS011;38286;51.156;17.038;2022-10-31T13:56:30;10.85;;;4.63;;
52354;SDS011;38286;51.156;17.038;2022-10-31T13:58:33;12.73;;;4.90;;
52354;SDS011;38286;51.156;17.038;2022-10-31T14:03:35;14.73;;;4.78;;
52354;SDS011;38286;51.156;17.038;2022-10-31T14:06:02;14.10;;;4.78;;
52354;SDS011;38286;51.156;17.038;2022-10-31T14:08:28;11.80;;;4.63;;
52354;SDS011;38286;51.156;17.038;2022-10-31T14:10:56;11.13;;;4.75;;
52354;SDS011;38286;51.156;17.038;2022-10-31T14:13:23;11.90;;;4.85;;
52354;SDS011;38286;51.156;17.038;2022-10-31T14:15:54;16.20;;;5.28;;
52354;SDS011;38286;51.156;17.038;2022-10-31T14:18:22;13.07;;;4.80;;
52354;SDS011;38286;51.156;17.038;2022-10-31T14:20:50;9.90;;;4.63;;
52354;SDS011;38286;51.156;17.038;2022-10-31T14:28:33;13.20;;;5.38;;
52354;SDS011;38286;51.156;17.038;2022-10-31T14:31:00;10.18;;;4.80;;
52354;SDS011;38286;51.156;17.038;2022-10-31T14:33:27;10.85;;;4.63;;
52354;SDS011;38286;51.156;17.038;2022-10-31T14:36:00;10.82;;;4.47;;
52354;SDS011;38286;51.156;17.038;2022-10-31T14:41:11;12.70;;;5.22;;
52354;SDS011;38286;51.156;17.038;2022-10-31T14:46:42;14.80;;;4.90;;
52354;SDS011;38286;51.156;17.038;2022-10-31T14:51:47;14.07;;;5.57;;
52354;SDS011;38286;51.156;17.038;2022-10-31T14:54:21;18.45;;;5.60;;
52354;SDS011;38286;51.156;17.038;2022-10-31T14:56:53;13.27;;;5.32;;
52354;SDS011;38286;51.156;17.038;2022-10-31T14:59:21;15.13;;;5.20;;
52354;SDS011;38286;51.156;17.038;2022-10-31T15:01:54;13.63;;;5.38;;
52354;SDS011;38286;51.156;17.038;2022-10-31T15:04:23;13.30;;;5.13;;
52354;SDS011;38286;51.156;17.038;2022-10-31T15:06:52;14.35;;;6.45;;
52354;SDS011;38286;51.156;17.038;2022-10-31T15:09:27;11.43;;;6.05;;
52354;SDS011;38286;51.156;17.038;2022-10-31T15:11:58;18.63;;;6.50;;
52354;SDS011;38286;51.156;17.038;2022-10-31T15:14:26;15.85;;;5.70;;
52354;SDS011;38286;51.156;17.038;2022-10-31T15:16:56;13.20;;;6.50;;
52354;SDS011;38286;51.156;17.038;2022-10-31T15:19:23;15.80;;;6.63;;
52354;SDS011;38286;51.156;17.038;2022-10-31T15:21:51;14.85;;;5.78;;
52354;SDS011;38286;51.156;17.038;2022-10-31T15:24:18;17.15;;;5.95;;
52354;SDS011;38286;51.156;17.038;2022-10-31T15:26:45;17.58;;;5.90;;
52354;SDS011;38286;51.156;17.038;2022-10-31T15:29:14;11.95;;;6.18;;
52354;SDS011;38286;51.156;17.038;2022-10-31T15:31:51;17.30;;;6.05;;
52354;SDS011;38286;51.156;17.038;2022-10-31T15:37:02;24.00;;;6.85;;
52354;SDS011;38286;51.156;17.038;2022-10-31T15:39:28;17.77;;;6.13;;
52354;SDS011;38286;51.156;17.038;2022-10-31T15:41:55;16.55;;;5.70;;
52354;SDS011;38286;51.156;17.038;2022-10-31T15:44:26;17.17;;;5.60;;
52354;SDS011;38286;51.156;17.038;2022-10-31T15:46:58;19.40;;;7.40;;
52354;SDS011;38286;51.156;17.038;2022-10-31T15:49:37;19.60;;;7.10;;
52354;SDS011;38286;51.156;17.038;2022-10-31T15:52:06;16.35;;;6.78;;
52354;SDS011;38286;51.156;17.038;2022-10-31T15:54:44;12.40;;;7.13;;
52354;SDS011;38286;51.156;17.038;2022-10-31T15:57:12;18.83;;;8.32;;
52354;SDS011;38286;51.156;17.038;2022-10-31T15:59:38;15.93;;;7.60;;
52354;SDS011;38286;51.156;17.038;2022-10-31T16:02:10;16.65;;;7.18;;
52354;SDS011;38286;51.156;17.038;2022-10-31T16:04:37;16.77;;;7.63;;
52354;SDS011;38286;51.156;17.038;2022-10-31T16:07:11;14.52;;;7.15;;
52354;SDS011;38286;51.156;17.038;2022-10-31T16:09:48;20.65;;;8.88;;
52354;SDS011;38286;51.156;17.038;2022-10-31T16:12:35;18.67;;;7.82;;
52354;SDS011;38286;51.156;17.038;2022-10-31T16:15:02;24.80;;;8.00;;
52354;SDS011;38286;51.156;17.038;2022-10-31T16:17:29;19.45;;;8.35;;
52354;SDS011;38286;51.156;17.038;2022-10-31T16:20:03;17.58;;;8.15;;
52354;SDS011;38286;51.156;17.038;2022-10-31T16:22:35;14.65;;;7.13;;
52354;SDS011;38286;51.156;17.038;2022-10-31T16:25:10;25.02;;;10.68;;
52354;SDS011;38286;51.156;17.038;2022-10-31T16:27:39;53.40;;;18.13;;
52354;SDS011;38286;51.156;17.038;2022-10-31T16:32:58;27.08;;;11.82;;
52354;SDS011;38286;51.156;17.038;2022-10-31T16:35:42;25.55;;;11.35;;
52354;SDS011;38286;51.156;17.038;2022-10-31T16:38:08;20.17;;;9.82;;
52354;SDS011;38286;51.156;17.038;2022-10-31T16:40:34;29.63;;;10.85;;
52354;SDS011;38286;51.156;17.038;2022-10-31T16:43:03;24.60;;;10.50;;
52354;SDS011;38286;51.156;17.038;2022-10-31T16:45:30;31.10;;;12.93;;
52354;SDS011;38286;51.156;17.038;2022-10-31T16:48:08;27.58;;;12.63;;
52354;SDS011;38286;51.156;17.038;2022-10-31T16:50:37;24.85;;;11.27;;
52354;SDS011;38286;51.156;17.038;2022-10-31T16:53:03;52.17;;;20.98;;
52354;SDS011;38286;51.156;17.038;2022-10-31T16:55:29;30.33;;;12.80;;
52354;SDS011;38286;51.156;17.038;2022-10-31T16:57:55;60.67;;;27.27;;
52354;SDS011;38286;51.156;17.038;2022-10-31T17:00:22;72.32;;;31.63;;
52354;SDS011;38286;51.156;17.038;2022-10-31T17:02:50;44.55;;;22.00;;
52354;SDS011;38286;51.156;17.038;2022-10-31T17:05:17;55.20;;;26.75;;
52354;SDS011;38286;51.156;17.038;2022-10-31T17:07:43;61.58;;;30.48;;
52354;SDS011;38286;51.156;17.038;2022-10-31T17:10:09;81.65;;;35.15;;
52354;SDS011;38286;51.156;17.038;2022-10-31T17:12:36;49.85;;;23.13;;